Time;durP1;ratioP1;P1;durP2;ratioP2;P2;SDS_P1;SDS_P2;PMS_P1;PMS_P2;Temp;Humidity;BMP_temperature;BMP_pressure;BME280_temperature;BME280_humidity;BME280_pressure;Samples;Min_cycle;Max_cycle;Signal;HPM_P1;HPM_P2
2023/08/03 00:02:12;;;;;;;3.85;2.03;;;;;;;;;;4993816;28;20091;-73
2023/08/03 00:04:38;;;;;;;7.32;1.83;;;;;;;;;;4995308;28;20105;-73
2023/08/03 00:07:04;;;;;;;6.07;1.77;;;;;;;;;;5018308;28;20044;-74
2023/08/03 00:09:30;;;;;;;6.35;2.00;;;;;;;;;;4995440;28;20077;-73
2023/08/03 00:11:56;;;;;;;5.38;1.77;;;;;;;;;;4997054;28;20049;-73
2023/08/03 00:14:22;;;;;;;6.35;1.63;;;;;;;;;;5019992;28;20041;-73
2023/08/03 00:16:48;;;;;;;7.03;1.50;;;;;;;;;;5014900;28;20037;-72
2023/08/03 00:19:13;;;;;;;5.85;2.00;;;16.40;99.90;;;;;;4999921;28;20080;-72
2023/08/03 00:21:39;;;;;;;4.57;1.40;;;;;;;;;;5020684;28;20052;-73
2023/08/03 00:24:05;;;;;;;3.25;1.40;;;;;;;;;;4996865;28;20042;-73
2023/08/03 00:26:31;;;;;;;4.72;1.50;;;16.30;99.90;;;;;;4999361;28;20042;-74
2023/08/03 00:28:56;;;;;;;5.38;1.63;;;16.30;99.90;;;;;;4983927;28;20037;-73
2023/08/03 00:31:22;;;;;;;5.10;1.98;;;;;;;;;;5019899;28;20783;-73
2023/08/03 00:33:48;;;;;;;5.40;1.50;;;;;;;;;;5002396;28;20435;-72
2023/08/03 00:36:14;;;;;;;4.72;2.28;;;;;;;;;;5024515;28;20049;-73
2023/08/03 00:38:40;;;;;;;3.95;1.20;;;;;;;;;;5012377;28;20045;-73
2023/08/03 00:41:06;;;;;;;7.35;1.55;;;16.10;99.90;;;;;;5017437;28;20488;-73
2023/08/03 00:43:32;;;;;;;2.83;1.02;;;16.20;99.90;;;;;;5019040;28;20038;-73
2023/08/03 00:45:58;;;;;;;3.95;1.00;;;;;;;;;;5020878;28;20048;-73
2023/08/03 00:48:24;;;;;;;3.75;1.38;;;;;;;;;;5016360;28;20045;-72
2023/08/03 00:50:50;;;;;;;4.53;1.20;;;;;;;;;;5020624;28;20053;-73
2023/08/03 00:53:16;;;;;;;1.83;0.90;;;;;;;;;;5019340;28;20041;-72
2023/08/03 00:55:41;;;;;;;4.13;0.93;;;16.20;99.90;;;;;;5020456;28;20042;-73
2023/08/03 00:58:07;;;;;;;3.22;1.13;;;;;;;;;;5015519;28;20038;-73
2023/08/03 01:00:34;;;;;;;1.10;0.90;;;16.00;99.90;;;;;;5016655;28;20044;-73
2023/08/03 01:03:00;;;;;;;4.53;0.60;;;;;;;;;;5011943;28;20045;-73
2023/08/03 01:05:26;;;;;;;2.72;0.70;;;;;;;;;;4999274;28;20061;-73
2023/08/03 01:07:52;;;;;;;2.42;1.08;;;;;;;;;;5005114;28;20049;-73
2023/08/03 01:10:19;;;;;;;1.73;1.08;;;16.20;99.90;;;;;;5021498;28;20487;-73
2023/08/03 01:12:45;;;;;;;3.13;1.25;;;;;;;;;;4999721;28;20053;-73
2023/08/03 01:15:10;;;;;;;3.97;1.38;;;16.20;99.90;;;;;;5019131;28;20042;-74
2023/08/03 01:17:37;;;;;;;1.90;1.15;;;;;;;;;;5013073;28;20056;-73
2023/08/03 01:20:03;;;;;;;3.35;1.10;;;;;;;;;;5006758;28;20067;-73
2023/08/03 01:22:31;;;;;;;3.30;1.52;;;16.20;99.90;;;;;;4998931;28;20045;-74
2023/08/03 01:24:57;;;;;;;4.00;1.08;;;16.20;99.90;;;;;;5013761;28;20041;-74
2023/08/03 01:27:23;;;;;;;3.40;1.48;;;;;;;;;;5002813;28;20099;-73
2023/08/03 01:29:49;;;;;;;4.97;1.58;;;;;;;;;;5003150;28;20060;-73
2023/08/03 01:32:14;;;;;;;2.45;1.10;;;16.30;99.90;;;;;;5002929;28;20061;-73
2023/08/03 01:34:40;;;;;;;3.13;1.40;;;;;;;;;;5016048;28;20120;-73
2023/08/03 01:37:06;;;;;;;2.15;1.38;;;16.20;99.90;;;;;;5017449;28;20045;-73
2023/08/03 01:39:32;;;;;;;5.13;1.80;;;;;;;;;;5023266;28;20171;-73
2023/08/03 01:41:58;;;;;;;3.13;1.38;;;;;;;;;;5016055;28;20534;-73
2023/08/03 01:44:28;;;;;;;3.88;1.55;;;16.20;99.90;;;;;;5016235;28;20049;-73
2023/08/03 01:46:56;;;;;;;2.35;1.65;;;16.20;99.90;;;;;;5016916;28;20074;-73
2023/08/03 01:49:24;;;;;;;7.05;1.92;;;16.30;99.90;;;;;;5019140;28;20034;-73
2023/08/03 01:51:51;;;;;;;4.95;1.60;;;;;;;;;;5022735;28;20046;-73
2023/08/03 01:54:16;;;;;;;7.55;2.00;;;;;;;;;;5017266;28;20046;-72
2023/08/03 01:56:43;;;;;;;4.53;1.70;;;;;;;;;;5002056;28;20037;-73
2023/08/03 01:59:08;;;;;;;3.10;1.60;;;16.20;99.90;;;;;;4983555;28;20052;-73
2023/08/03 02:01:34;;;;;;;4.18;1.70;;;;;;;;;;5003814;28;20061;-73
2023/08/03 02:04:00;;;;;;;5.85;2.28;;;16.20;99.90;;;;;;5014129;28;20763;-73
2023/08/03 02:06:26;;;;;;;4.03;1.83;;;;;;;;;;5011101;28;20041;-73
2023/08/03 02:08:52;;;;;;;3.20;1.70;;;;;;;;;;5022737;28;20049;-72
2023/08/03 02:11:17;;;;;;;4.30;2.00;;;16.30;99.90;;;;;;5024345;28;20387;-73
2023/08/03 02:13:43;;;;;;;2.88;2.25;;;16.20;99.90;;;;;;4999198;28;20056;-73
2023/08/03 02:16:10;;;;;;;6.65;2.40;;;16.40;99.90;;;;;;5016650;28;20132;-73
2023/08/03 02:18:37;;;;;;;5.00;2.17;;;16.30;99.90;;;;;;5014183;28;20077;-72
2023/08/03 02:21:06;;;;;;;6.50;3.03;;;16.30;99.90;;;;;;5014705;28;20041;-73
2023/08/03 02:23:32;;;;;;;6.20;3.42;;;;;;;;;;5006486;28;20041;-73
2023/08/03 02:25:59;;;;;;;5.93;3.42;;;16.30;99.90;;;;;;5003818;28;20076;-73
2023/08/03 02:28:25;;;;;;;8.73;3.42;;;;;;;;;;5011845;28;20042;-72
2023/08/03 02:30:51;;;;;;;6.00;3.90;;;;;;;;;;5002143;28;20064;-73
2023/08/03 02:33:17;;;;;;;7.65;3.90;;;;;;;;;;5002720;28;20061;-72
2023/08/03 02:35:43;;;;;;;4.80;3.80;;;;;;;;;;5021188;28;20050;-73
2023/08/03 02:38:09;;;;;;;5.93;4.35;;;16.20;99.90;;;;;;5005605;28;20037;-73
2023/08/03 02:40:34;;;;;;;5.93;3.83;;;16.20;99.90;;;;;;5024149;28;20047;-73
2023/08/03 02:43:00;;;;;;;12.05;4.03;;;;;;;;;;5023603;28;20112;-73
2023/08/03 02:45:26;;;;;;;5.95;4.03;;;16.30;99.90;;;;;;5020267;28;20088;-73
2023/08/03 02:47:52;;;;;;;7.95;4.03;;;;;;;;;;5003843;28;20100;-72
2023/08/03 02:50:18;;;;;;;7.32;4.40;;;;;;;;;;5006057;28;20052;-72
2023/08/03 02:52:43;;;;;;;15.30;4.72;;;16.20;99.90;;;;;;5005935;28;20053;-73
2023/08/03 02:55:09;;;;;;;8.10;4.72;;;16.30;99.90;;;;;;5023471;28;20046;-73
2023/08/03 02:57:35;;;;;;;7.65;4.68;;;;;;;;;;5014899;28;20049;-73
2023/08/03 03:00:01;;;;;;;7.90;4.60;;;;;;;;;;4987965;28;20045;-73
2023/08/03 03:02:26;;;;;;;8.25;5.20;;;16.40;99.90;;;;;;5017997;28;20042;-73
2023/08/03 03:04:52;;;;;;;11.77;5.32;;;;;;;;;;5019639;28;20777;-72
2023/08/03 03:07:18;;;;;;;11.90;6.05;;;;;;;;;;5004357;28;20495;-72
2023/08/03 03:09:44;;;;;;;11.38;5.47;;;16.40;99.90;;;;;;5003903;28;20046;-73
2023/08/03 03:12:09;;;;;;;10.73;5.45;;;16.30;99.90;;;;;;5006835;28;20124;-73
2023/08/03 03:14:35;;;;;;;8.02;5.22;;;16.40;99.90;;;;;;5019100;28;20045;-73
2023/08/03 03:17:01;;;;;;;10.48;5.32;;;;;;;;;;5022538;28;20120;-72
2023/08/03 03:19:27;;;;;;;11.15;5.40;;;16.30;99.90;;;;;;5028840;28;20073;-73
2023/08/03 03:21:53;;;;;;;12.13;4.72;;;;;;;;;;5015677;28;20127;-73
2023/08/03 03:24:19;;;;;;;9.80;4.85;;;;;;;;;;5022071;28;20631;-73
2023/08/03 03:26:45;;;;;;;13.18;5.53;;;16.20;99.90;;;;;;4998744;28;20103;-73
2023/08/03 03:29:10;;;;;;;11.15;4.57;;;16.20;99.90;;;;;;5021007;28;20079;-73
2023/08/03 03:31:36;;;;;;;16.40;4.80;;;;;;;;;;5024369;28;20042;-73
2023/08/03 03:34:02;;;;;;;7.93;4.40;;;16.20;99.90;;;;;;5019227;28;20171;-73
2023/08/03 03:36:28;;;;;;;12.93;4.53;;;;;;;;;;5002300;28;20056;-71
2023/08/03 03:38:54;;;;;;;13.13;4.50;;;;;;;;;;4993798;28;20045;-73
2023/08/03 03:41:19;;;;;;;12.80;4.05;;;16.10;99.90;;;;;;5026115;28;20037;-73
2023/08/03 03:43:45;;;;;;;11.65;4.43;;;16.20;99.90;;;;;;5023245;28;20050;-73
2023/08/03 03:46:11;;;;;;;10.13;3.65;;;;;;;;;;5006159;28;20077;-73
2023/08/03 03:48:37;;;;;;;7.78;3.53;;;;;;;;;;5022541;28;20045;-72
2023/08/03 03:51:03;;;;;;;13.80;4.32;;;15.90;99.90;;;;;;5018120;28;20050;-73
2023/08/03 03:53:29;;;;;;;13.00;3.75;;;;;;;;;;5020157;28;20377;-73
2023/08/03 03:55:55;;;;;;;13.00;4.07;;;;;;;;;;5023245;28;20508;-73
2023/08/03 03:58:20;;;;;;;8.35;3.15;;;16.00;99.90;;;;;;5021016;28;20075;-73
2023/08/03 04:00:46;;;;;;;14.73;3.42;;;;;;;;;;5007229;28;20050;-72
2023/08/03 04:03:12;;;;;;;15.50;3.75;;;;;;;;;;5025380;28;20037;-72
2023/08/03 04:05:38;;;;;;;12.90;4.00;;;16.10;99.90;;;;;;5002564;28;20072;-73
2023/08/03 04:08:04;;;;;;;13.20;4.13;;;16.00;99.90;;;;;;5014982;28;20077;-73
2023/08/03 04:10:31;;;;;;;11.48;3.92;;;16.20;99.90;;;;;;5021184;28;20094;-73
2023/08/03 04:12:57;;;;;;;12.88;4.15;;;;;;;;;;5004675;28;20052;-73
2023/08/03 04:15:23;;;;;;;15.80;4.22;;;15.80;99.90;;;;;;5020320;28;20916;-71
2023/08/03 04:17:49;;;;;;;12.10;3.72;;;;;;;;;;5023294;28;20037;-72
2023/08/03 04:20:16;;;;;;;12.77;2.75;;;16.20;99.90;;;;;;4997191;28;20609;-73
2023/08/03 04:22:42;;;;;;;13.70;3.55;;;;;;;;;;5018815;28;20048;-73
2023/08/03 04:25:08;;;;;;;11.25;3.00;;;16.10;99.90;;;;;;5005888;28;20045;-73
2023/08/03 04:27:34;;;;;;;10.90;2.83;;;;;;;;;;5020710;28;20628;-73
2023/08/03 04:30:00;;;;;;;12.00;3.72;;;;;;;;;;4994425;28;20041;-71
2023/08/03 04:32:25;;;;;;;12.75;3.45;;;16.20;99.90;;;;;;5004696;28;20579;-72
2023/08/03 04:34:51;;;;;;;18.67;3.50;;;16.20;99.90;;;;;;5022759;28;20046;-73
2023/08/03 04:37:17;;;;;;;8.68;2.45;;;;;;;;;;4998766;28;20112;-73
2023/08/03 04:39:43;;;;;;;16.13;3.30;;;;;;;;;;5020780;28;20051;-73
2023/08/03 04:42:09;;;;;;;7.38;2.38;;;;;;;;;;5012693;28;20116;-73
2023/08/03 04:44:35;;;;;;;9.15;2.45;;;;;;;;;;5022210;28;20048;-70
2023/08/03 04:47:01;;;;;;;15.65;2.70;;;;;;;;;;5024715;28;20045;-73
2023/08/03 04:49:26;;;;;;;14.48;3.13;;;16.20;99.90;;;;;;5021753;28;20454;-73
2023/08/03 04:51:53;;;;;;;18.10;3.63;;;;;;;;;;5007383;28;20052;-72
2023/08/03 04:54:19;;;;;;;15.50;2.55;;;16.20;99.90;;;;;;5020969;28;20037;-73
2023/08/03 04:56:45;;;;;;;17.00;2.83;;;;;;;;;;5022192;28;20087;-71
2023/08/03 04:59:11;;;;;;;12.35;2.30;;;;;;;;;;5003257;28;20408;-72
2023/08/03 05:01:37;;;;;;;10.38;2.92;;;16.20;99.90;;;;;;4996387;28;20129;-73
2023/08/03 05:04:03;;;;;;;8.65;3.40;;;;;;;;;;5017323;28;20044;-73
2023/08/03 05:06:29;;;;;;;12.55;2.88;;;16.20;99.90;;;;;;5020440;28;20092;-73
2023/08/03 05:08:55;;;;;;;13.23;2.95;;;;;;;;;;5010610;28;20096;-72
2023/08/03 05:11:21;;;;;;;8.45;2.78;;;;;;;;;;5018600;28;20041;-73
2023/08/03 05:13:47;;;;;;;17.48;2.92;;;16.50;99.90;;;;;;5004767;28;20400;-73
2023/08/03 05:16:13;;;;;;;15.70;4.05;;;;;;;;;;5002431;28;20045;-73
2023/08/03 05:18:39;;;;;;;9.88;3.03;;;;;;;;;;5021228;28;20046;-73
2023/08/03 05:21:05;;;;;;;9.25;3.17;;;;;;;;;;5021199;28;20046;-72
2023/08/03 05:23:31;;;;;;;13.00;3.00;;;;;;;;;;5022487;28;20144;-73
2023/08/03 05:25:58;;;;;;;10.55;3.00;;;16.90;99.90;;;;;;5003826;28;20500;-73
2023/08/03 05:28:25;;;;;;;7.28;3.05;;;16.60;99.90;;;;;;5018766;28;20049;-73
2023/08/03 05:30:51;;;;;;;13.90;2.75;;;;;;;;;;5012939;28;20759;-72
2023/08/03 05:33:17;;;;;;;13.00;2.88;;;;;;;;;;5017140;28;20508;-73
2023/08/03 05:35:44;;;;;;;8.43;2.53;;;;;;;;;;5016111;28;20735;-72
2023/08/03 05:38:10;;;;;;;12.23;3.53;;;16.90;99.90;;;;;;4998565;28;20754;-72
2023/08/03 05:40:39;;;;;;;9.27;2.90;;;16.90;99.90;;;;;;4992159;28;20050;-73
2023/08/03 05:43:10;;;;;;;12.63;3.08;;;16.90;99.90;;;;;;5017602;28;20037;-73
2023/08/03 05:45:50;;;;;;;13.98;3.22;;;17.10;99.90;;;;;;5021030;28;20812;-72
2023/08/03 05:48:18;;;;;;;12.95;3.47;;;17.10;99.90;;;;;;5013830;28;20041;-72
2023/08/03 05:50:54;;;;;;;7.30;2.45;;;17.20;99.90;;;;;;5003188;28;20053;-73
2023/08/03 05:53:20;;;;;;;13.55;2.67;;;;;;;;;;5020717;28;20044;-73
2023/08/03 05:55:46;;;;;;;9.38;3.10;;;17.50;99.90;;;;;;5001784;28;20119;-73
2023/08/03 05:58:15;;;;;;;4.78;1.92;;;17.30;99.90;;;;;;5004464;28;20042;-72
2023/08/03 06:00:41;;;;;;;14.43;2.53;;;17.30;99.90;;;;;;5017331;28;20488;-72
2023/08/03 06:03:11;;;;;;;6.45;2.47;;;17.50;99.90;;;;;;5023309;28;20050;-73
2023/08/03 06:05:45;;;;;;;9.25;3.33;;;17.50;99.90;;;;;;5021016;28;20049;-72
2023/08/03 06:08:16;;;;;;;8.65;2.70;;;17.50;99.90;;;;;;5025969;28;20077;-73
2023/08/03 06:10:47;;;;;;;9.25;3.05;;;17.50;99.90;;;;;;5001120;28;20057;-72
2023/08/03 06:13:15;;;;;;;11.35;2.40;;;17.40;99.90;;;;;;5021949;28;20045;-72
2023/08/03 06:15:42;;;;;;;7.93;2.58;;;17.60;99.90;;;;;;5018134;28;20048;-73
2023/08/03 06:18:11;;;;;;;9.48;2.35;;;17.60;99.90;;;;;;5021011;28;20105;-71
2023/08/03 06:20:43;;;;;;;6.68;1.83;;;18.10;99.90;;;;;;5015767;28;20089;-73
2023/08/03 06:23:25;;;;;;;8.35;1.80;;;18.90;99.90;;;;;;5015266;28;20042;-73
2023/08/03 06:25:52;;;;;;;8.40;2.05;;;19.40;99.90;;;;;;5020702;28;20045;-71
2023/08/03 06:28:20;;;;;;;7.20;1.15;;;20.30;99.90;;;;;;5002882;28;20634;-72
2023/08/03 06:30:47;;;;;;;7.22;1.15;;;21.20;99.90;;;;;;5004888;28;20059;-73
2023/08/03 06:33:16;;;;;;;5.75;0.90;;;21.70;99.90;;;;;;5025384;28;20617;-73
2023/08/03 06:35:43;;;;;;;7.15;1.30;;;22.00;99.90;;;;;;4985283;28;20049;-73
2023/08/03 06:38:19;;;;;;;6.47;1.10;;;22.30;99.90;;;;;;5002388;28;20041;-74
2023/08/03 06:40:46;;;;;;;5.82;0.95;;;22.00;99.90;;;;;;5000293;28;20456;-73
2023/08/03 06:43:13;;;;;;;6.75;1.10;;;21.80;99.90;;;;;;5008342;28;20550;-73
2023/08/03 06:45:40;;;;;;;5.35;1.10;;;23.40;99.90;;;;;;5020906;28;20053;-74
2023/08/03 06:48:06;;;;;;;5.88;1.13;;;23.20;99.90;;;;;;5020836;28;20503;-74
2023/08/03 06:50:32;;;;;;;3.33;1.02;;;23.50;99.90;;;;;;5001191;28;20057;-73
2023/08/03 06:52:59;;;;;;;6.82;0.82;;;23.60;99.90;;;;;;5022767;28;20033;-73
2023/08/03 06:55:25;;;;;;;5.43;0.60;;;23.40;99.90;;;;;;5002282;28;20130;-73
2023/08/03 06:57:52;;;;;;;4.85;1.08;;;23.20;99.90;;;;;;5024430;28;20052;-73
2023/08/03 07:00:18;;;;;;;2.47;0.70;;;23.30;99.90;;;;;;5016433;28;20065;-73
2023/08/03 07:02:48;;;;;;;3.75;0.68;;;21.30;99.90;;;;;;5003908;28;20124;-73
2023/08/03 07:05:14;;;;;;;3.08;0.82;;;21.30;99.90;;;;;;5003614;28;20042;-73
2023/08/03 07:07:40;;;;;;;4.22;0.68;;;20.90;99.90;;;;;;5021950;28;20106;-72
2023/08/03 07:10:06;;;;;;;9.27;1.00;;;20.70;99.90;;;;;;5001196;28;20692;-70
2023/08/03 07:12:35;;;;;;;4.57;0.80;;;20.60;99.90;;;;;;5022392;28;20046;-73
2023/08/03 07:15:01;;;;;;;3.28;0.65;;;20.10;99.90;;;;;;5014752;28;20041;-72
2023/08/03 07:17:27;;;;;;;2.92;1.02;;;22.60;99.90;;;;;;5025373;28;20052;-73
2023/08/03 07:19:54;;;;;;;5.50;1.20;;;19.90;99.90;;;;;;5023718;28;20407;-72
2023/08/03 07:22:20;;;;;;;2.00;0.47;;;20.00;99.90;;;;;;5022124;28;20056;-73
2023/08/03 07:24:45;;;;;;;5.00;1.15;;;20.30;99.90;;;;;;5003920;28;20037;-73
2023/08/03 07:27:11;;;;;;;4.03;0.90;;;20.10;99.90;;;;;;5004220;28;20060;-73
2023/08/03 07:29:36;;;;;;;2.92;0.88;;;20.20;99.90;;;;;;5022505;28;20454;-74
2023/08/03 07:32:03;;;;;;;3.92;0.90;;;19.80;99.90;;;;;;5006464;28;20057;-73
2023/08/03 07:34:29;;;;;;;4.88;1.10;;;20.10;99.90;;;;;;5012023;28;20056;-71
2023/08/03 07:36:56;;;;;;;4.22;0.93;;;19.60;99.90;;;;;;5005435;28;20482;-73
2023/08/03 07:39:22;;;;;;;3.95;0.80;;;19.50;99.90;;;;;;5020185;28;20041;-73
2023/08/03 07:41:48;;;;;;;3.63;1.40;;;;;;;;;;5003646;28;20047;-73
2023/08/03 07:44:17;;;;;;;3.70;0.50;;;19.50;99.90;;;;;;5007290;28;20038;-71
2023/08/03 07:46:44;;;;;;;6.20;1.05;;;19.60;99.90;;;;;;5020609;28;20055;-72
2023/08/03 07:49:10;;;;;;;5.00;0.70;;;;;;;;;;5019309;28;20548;-73
2023/08/03 07:51:35;;;;;;;8.50;0.75;;;19.70;99.90;;;;;;5019621;28;20117;-73
2023/08/03 07:54:01;;;;;;;6.10;0.82;;;19.80;99.90;;;;;;5020152;28;20037;-74
2023/08/03 07:56:26;;;;;;;5.25;0.70;;;19.90;99.90;;;;;;5013523;28;20057;-73
2023/08/03 07:58:52;;;;;;;3.50;0.57;;;20.00;99.90;;;;;;5016960;28;20041;-73
2023/08/03 08:01:19;;;;;;;3.90;0.75;;;19.90;99.90;;;;;;5016857;28;20100;-74
2023/08/03 08:03:45;;;;;;;5.00;0.68;;;19.90;99.90;;;;;;5022059;28;20075;-73
2023/08/03 08:06:16;;;;;;;3.65;0.85;;;19.90;99.90;;;;;;5021478;28;20116;-74
2023/08/03 08:08:42;;;;;;;3.95;0.70;;;19.80;99.90;;;;;;5005728;28;20123;-72
2023/08/03 08:11:08;;;;;;;5.35;0.70;;;19.80;99.90;;;;;;5017290;28;20452;-74
2023/08/03 08:13:34;;;;;;;5.43;0.90;;;19.90;99.90;;;;;;5021107;28;20830;-73
2023/08/03 08:16:04;;;;;;;3.90;0.75;;;19.90;99.90;;;;;;5020996;28;20050;-74
2023/08/03 08:18:30;;;;;;;3.30;0.80;;;19.90;99.90;;;;;;5015314;28;20034;-74
2023/08/03 08:21:01;;;;;;;4.90;0.77;;;19.80;99.90;;;;;;5018350;28;20029;-73
2023/08/03 08:23:27;;;;;;;5.60;1.77;;;20.00;99.90;;;;;;5015748;28;20512;-73
2023/08/03 08:25:53;;;;;;;1.83;0.50;;;20.10;99.90;;;;;;5002317;28;20049;-73
2023/08/03 08:28:19;;;;;;;6.07;0.70;;;19.90;99.90;;;;;;5014684;28;20052;-73
2023/08/03 08:30:44;;;;;;;3.63;0.50;;;19.90;99.90;;;;;;5007191;28;20049;-73
2023/08/03 08:33:11;;;;;;;2.35;0.45;;;19.90;99.90;;;;;;5022278;28;20066;-73
2023/08/03 08:35:36;;;;;;;2.17;0.47;;;19.90;99.90;;;;;;5002389;28;20502;-73
2023/08/03 08:38:04;;;;;;;2.78;0.73;;;19.90;99.90;;;;;;5020794;28;20114;-73
2023/08/03 08:40:33;;;;;;;3.97;1.02;;;20.00;99.90;;;;;;5015625;28;20116;-73
2023/08/03 08:42:59;;;;;;;3.63;0.82;;;20.00;99.90;;;;;;5016464;28;20567;-72
2023/08/03 08:45:24;;;;;;;6.70;1.13;;;20.10;99.90;;;;;;5018277;28;20046;-73
2023/08/03 08:47:50;;;;;;;3.83;0.70;;;20.20;99.90;;;;;;5020073;28;20056;-72
2023/08/03 08:50:16;;;;;;;5.20;0.68;;;20.30;99.90;;;;;;5020689;28;20049;-73
2023/08/03 08:52:43;;;;;;;6.03;0.75;;;20.20;99.90;;;;;;5016087;28;20062;-74
2023/08/03 08:55:20;;;;;;;8.40;0.90;;;20.40;99.90;;;;;;5016405;28;20447;-73
2023/08/03 08:57:46;;;;;;;2.10;0.60;;;20.40;99.90;;;;;;5016014;28;20087;-73
2023/08/03 09:00:12;;;;;;;4.22;0.60;;;20.50;99.90;;;;;;5002636;28;20436;-74
2023/08/03 09:02:38;;;;;;;6.07;1.10;;;20.50;99.90;;;;;;5023303;28;20188;-76
2023/08/03 09:05:21;;;;;;;3.53;0.60;;;20.60;99.90;;;;;;5016311;28;20536;-75
2023/08/03 09:08:03;;;;;;;3.03;0.57;;;20.70;99.90;;;;;;5015991;28;20045;-76
2023/08/03 09:10:30;;;;;;;5.72;0.85;;;20.60;99.90;;;;;;5025706;28;20195;-76
2023/08/03 09:12:57;;;;;;;6.13;0.95;;;20.90;99.90;;;;;;5016124;28;20037;-76
2023/08/03 09:15:42;;;;;;;3.92;0.90;;;20.70;99.90;;;;;;4997795;28;20066;-76
2023/08/03 09:18:08;;;;;;;2.58;0.50;;;20.90;99.90;;;;;;5019495;28;20045;-75
2023/08/03 09:20:34;;;;;;;2.95;0.68;;;20.70;99.90;;;;;;5015427;28;20042;-76
2023/08/03 09:23:01;;;;;;;3.00;0.50;;;20.90;99.90;;;;;;5023264;28;20046;-76
2023/08/03 09:25:27;;;;;;;4.72;1.08;;;20.70;99.90;;;;;;5019110;28;20103;-76
2023/08/03 09:27:55;;;;;;;2.28;0.52;;;22.30;99.90;;;;;;5018774;28;20042;-74
2023/08/03 09:30:22;;;;;;;3.00;0.80;;;20.80;99.90;;;;;;5007385;28;20045;-76
2023/08/03 09:32:47;;;;;;;7.57;1.48;;;20.70;99.90;;;;;;5010168;28;21167;-76
2023/08/03 09:35:25;;;;;;;7.57;1.05;;;22.60;99.90;;;;;;5021133;28;20065;-75
2023/08/03 09:37:52;;;;;;;5.30;1.75;;;20.90;99.90;;;;;;5024370;28;20597;-76
2023/08/03 09:40:19;;;;;;;7.82;1.13;;;20.90;99.90;;;;;;5020034;28;20395;-75
2023/08/03 09:42:47;;;;;;;4.93;0.88;;;21.00;99.90;;;;;;5025557;28;20103;-76
2023/08/03 09:45:13;;;;;;;8.05;1.27;;;20.70;99.90;;;;;;5010353;28;20049;-76
2023/08/03 09:47:39;;;;;;;6.78;0.98;;;22.90;99.90;;;;;;5027301;28;20503;-76
2023/08/03 09:50:06;;;;;;;6.65;0.90;;;21.00;99.90;;;;;;5023732;28;20041;-76
2023/08/03 09:52:40;;;;;;;5.25;1.00;;;21.10;99.90;;;;;;5011197;28;20042;-76
2023/08/03 09:55:20;;;;;;;7.00;1.13;;;21.10;99.90;;;;;;4987021;28;20085;-76
2023/08/03 09:58:12;;;;;;;8.45;1.00;;;20.70;99.90;;;;;;5004956;28;20081;-76
2023/08/03 10:00:38;;;;;;;5.25;1.10;;;20.90;99.90;;;;;;5023024;28;20045;-76
2023/08/03 10:03:09;;;;;;;3.88;0.75;;;21.00;99.90;;;;;;5007879;28;20046;-76
2023/08/03 10:05:39;;;;;;;7.25;1.05;;;21.30;99.90;;;;;;5009302;28;20045;-76
2023/08/03 10:08:15;;;;;;;7.30;1.33;;;21.60;99.90;;;;;;5006330;28;20161;-76
2023/08/03 10:10:48;;;;;;;9.93;1.08;;;21.80;99.90;;;;;;5006840;28;20045;-76
2023/08/03 10:13:14;;;;;;;4.20;0.70;;;21.50;99.90;;;;;;5025771;28;20056;-73
2023/08/03 10:15:41;;;;;;;5.63;1.10;;;21.40;99.90;;;;;;5008921;28;20342;-74
2023/08/03 10:18:07;;;;;;;6.97;1.30;;;22.70;99.90;;;;;;5027725;28;20057;-76
2023/08/03 10:20:35;;;;;;;7.28;1.52;;;21.30;99.90;;;;;;5019220;28;20054;-76
2023/08/03 10:23:08;;;;;;;5.80;1.10;;;21.40;99.90;;;;;;5024438;28;20056;-76
2023/08/03 10:25:59;;;;;;;5.72;0.90;;;21.50;99.90;;;;;;5024869;28;20524;-75
2023/08/03 10:28:40;;;;;;;7.18;0.77;;;21.60;99.90;;;;;;5001526;28;20118;-76
2023/08/03 10:31:17;;;;;;;5.25;0.95;;;21.90;99.90;;;;;;5023217;28;20226;-76
2023/08/03 10:33:51;;;;;;;5.15;0.80;;;21.90;99.90;;;;;;5020364;28;20136;-76
2023/08/03 10:36:26;;;;;;;;;;;22.20;99.90;;;;;;5006613;28;20128;-76
2023/08/03 10:38:52;;;;;;;4.20;0.43;;;21.60;99.90;;;;;;5004217;28;19927;-76
2023/08/03 10:41:30;;;;;;;5.43;0.73;;;23.10;99.90;;;;;;5011192;28;20049;-71
2023/08/03 10:44:12;;;;;;;1.83;0.38;;;21.60;99.90;;;;;;5023907;28;20045;-69
2023/08/03 10:46:44;;;;;;;3.95;0.63;;;21.50;99.90;;;;;;5017879;28;20058;-70
2023/08/03 10:49:19;;;;;;;3.03;0.50;;;21.80;99.90;;;;;;5015801;28;20053;-70
2023/08/03 10:51:51;;;;;;;5.55;0.50;;;21.80;99.90;;;;;;5014055;28;20052;-70
2023/08/03 10:54:30;;;;;;;4.60;0.50;;;21.90;99.90;;;;;;4982125;28;20053;-70
2023/08/03 10:57:04;;;;;;;3.58;0.75;;;22.00;99.90;;;;;;5011088;28;20050;-69
2023/08/03 10:59:45;;;;;;;4.03;0.70;;;22.10;99.90;;;;;;5021701;28;20068;-69
2023/08/03 11:02:14;;;;;;;5.07;0.65;;;22.10;99.90;;;;;;5016391;28;20049;-70
2023/08/03 11:04:40;;;;;;;1.98;0.40;;;22.30;99.90;;;;;;5005621;28;20056;-69
2023/08/03 11:07:12;;;;;;;4.30;0.52;;;22.20;99.90;;;;;;5003004;28;20690;-69
2023/08/03 11:09:37;;;;;;;2.42;0.57;;;22.30;99.90;;;;;;5002611;28;20805;-70
2023/08/03 11:12:07;;;;;;;2.88;0.82;;;22.20;99.90;;;;;;5020827;28;20115;-70
2023/08/03 11:14:35;;;;;;;4.07;0.52;;;22.20;99.90;;;;;;5025184;28;20085;-70
2023/08/03 11:17:01;;;;;;;4.93;0.77;;;22.30;99.90;;;;;;5018815;28;20044;-70
2023/08/03 11:19:32;;;;;;;4.45;0.50;;;22.10;99.90;;;;;;5001600;28;20447;-70
2023/08/03 11:22:01;;;;;;;2.40;0.90;;;22.20;99.90;;;;;;4991740;28;20604;-69
2023/08/03 11:24:33;;;;;;;2.40;0.50;;;22.20;99.90;;;;;;5019637;28;20042;-70
2023/08/03 11:26:59;;;;;;;5.97;1.92;;;22.20;99.90;;;;;;5009886;28;20042;-70
2023/08/03 11:29:25;;;;;;;10.65;1.10;;;22.10;99.90;;;;;;5017702;28;20045;-70
2023/08/03 11:31:51;;;;;;;3.67;1.23;;;21.90;99.90;;;;;;5003081;28;20045;-70
2023/08/03 11:34:18;;;;;;;3.28;0.60;;;21.90;99.90;;;;;;5003767;28;20748;-70
2023/08/03 11:36:48;;;;;;;7.47;1.25;;;21.80;99.90;;;;;;5005294;28;20504;-69
2023/08/03 11:39:14;;;;;;;5.60;1.15;;;21.60;99.90;;;;;;5019565;28;20064;-69
2023/08/03 11:41:40;;;;;;;4.90;0.65;;;21.60;99.90;;;;;;5019353;28;20055;-70
2023/08/03 11:44:06;;;;;;;6.63;1.00;;;21.60;99.90;;;;;;5000105;28;20049;-67
2023/08/03 11:46:32;;;;;;;7.13;1.50;;;21.80;99.90;;;;;;4997565;28;20554;-70
2023/08/03 11:48:58;;;;;;;8.60;1.00;;;21.80;99.90;;;;;;5005824;28;20045;-70
2023/08/03 11:51:37;;;;;;;9.05;1.20;;;21.60;99.90;;;;;;5015315;28;20131;-70
2023/08/03 11:54:06;;;;;;;3.80;0.80;;;22.00;99.90;;;;;;5014786;28;20428;-70
2023/08/03 11:56:34;;;;;;;4.85;0.95;;;21.70;99.90;;;;;;5007962;28;20064;-69
2023/08/03 11:59:02;;;;;;;6.70;0.80;;;21.70;99.90;;;;;;5023639;28;20053;-70
2023/08/03 12:01:28;;;;;;;5.85;0.95;;;21.70;99.90;;;;;;5020023;28;20037;-70
2023/08/03 12:04:06;;;;;;;4.72;0.80;;;21.70;99.90;;;;;;5021760;28;20049;-68
2023/08/03 12:06:52;;;;;;;5.38;0.50;;;21.90;99.90;;;;;;5005805;28;20033;-70
2023/08/03 12:09:19;;;;;;;3.40;0.50;;;21.50;99.90;;;;;;5003505;28;20044;-70
2023/08/03 12:11:45;;;;;;;2.85;0.63;;;21.60;99.90;;;;;;5003555;28;20120;-70
2023/08/03 12:14:11;;;;;;;3.03;0.40;;;21.70;99.90;;;;;;5018557;28;20120;-69
2023/08/03 12:16:37;;;;;;;1.70;0.40;;;21.70;99.90;;;;;;5023857;28;20057;-69
2023/08/03 12:19:07;;;;;;;3.00;0.77;;;21.30;99.90;;;;;;5023181;28;20048;-70
2023/08/03 12:21:37;;;;;;;3.33;0.77;;;21.40;99.90;;;;;;5005481;28;20049;-69
2023/08/03 12:24:04;;;;;;;4.38;0.63;;;21.50;99.90;;;;;;5002982;28;20147;-69
2023/08/03 12:26:29;;;;;;;4.53;0.85;;;21.30;99.90;;;;;;5005037;28;20041;-70
2023/08/03 12:28:55;;;;;;;3.85;0.90;;;21.40;99.90;;;;;;5012393;28;20048;-70
2023/08/03 12:31:21;;;;;;;3.85;0.77;;;21.50;99.90;;;;;;5020654;28;20517;-68
2023/08/03 12:33:47;;;;;;;3.58;1.02;;;21.30;99.90;;;;;;5015959;28;20067;-70
2023/08/03 12:36:13;;;;;;;3.85;0.82;;;21.30;99.90;;;;;;5019303;28;20045;-69
2023/08/03 12:38:39;;;;;;;9.32;1.42;;;21.10;99.90;;;;;;5020035;28;20053;-70
2023/08/03 12:41:04;;;;;;;3.88;1.00;;;21.20;99.90;;;;;;5004153;28;20041;-70
2023/08/03 12:43:31;;;;;;;5.45;1.00;;;21.20;99.90;;;;;;5001575;28;20186;-70
2023/08/03 12:45:57;;;;;;;6.78;1.95;;;21.00;99.90;;;;;;5022966;28;20045;-70
2023/08/03 12:48:22;;;;;;;7.55;1.50;;;20.60;99.90;;;;;;4978348;28;20490;-69
2023/08/03 12:50:48;;;;;;;8.73;1.35;;;20.50;99.90;;;;;;5020044;28;20116;-70
2023/08/03 12:53:14;;;;;;;2.85;0.95;;;20.30;99.90;;;;;;5006392;28;20049;-70
2023/08/03 12:55:39;;;;;;;4.05;1.05;;;20.30;99.90;;;;;;5017451;28;20042;-70
2023/08/03 12:58:05;;;;;;;5.57;0.90;;;20.30;99.90;;;;;;5007985;28;20037;-70
2023/08/03 13:00:30;;;;;;;9.40;1.17;;;20.30;99.90;;;;;;5012109;28;20480;-70
2023/08/03 13:02:56;;;;;;;2.55;0.73;;;20.20;99.90;;;;;;5006577;28;20457;-70
2023/08/03 13:05:22;;;;;;;4.93;1.13;;;20.10;99.90;;;;;;5018702;28;20048;-67
2023/08/03 13:07:47;;;;;;;8.20;1.63;;;20.10;99.90;;;;;;5013873;28;20060;-70
2023/08/03 13:10:14;;;;;;;4.43;1.08;;;20.00;99.90;;;;;;5017994;28;20065;-69
2023/08/03 13:12:40;;;;;;;5.05;1.20;;;19.90;99.90;;;;;;5004633;28;20075;-70
2023/08/03 13:15:06;;;;;;;5.47;1.52;;;;;;;;;;5015202;28;20071;-69